EST,Max TemperatureF,Mean TemperatureF,Min TemperatureF,Max Dew PointF,MeanDew PointF,Min DewpointF,Max Humidity, Mean Humidity, Min Humidity, Max Sea Level PressureIn, Mean Sea Level PressureIn, Min Sea Level PressureIn, Max VisibilityMiles, Mean VisibilityMiles, Min VisibilityMiles, Max Wind SpeedMPH, Mean Wind SpeedMPH, Max Gust SpeedMPH,PrecipitationIn, CloudCover, Events, WindDirDegrees
2012-12-1,69,54,39,57,49,39,100,88,56,30.41,30.36,30.32,10,9,5,7,0,,0.00,0,,69
2012-12-2,73,58,44,63,56,45,100,89,65,30.40,30.33,30.28,10,9,3,8,2,,0.00,0,,130
2012-12-3,77,64,50,66,55,50,100,88,53,30.34,30.29,30.24,10,6,0,7,1,,0.00,0,Fog,251
2012-12-4,77,64,51,63,56,52,100,86,44,30.35,30.28,30.24,10,7,0,9,1,,0.00,0,Fog,217
2012-12-5,77,62,46,61,56,46,100,81,44,30.24,30.17,30.10,10,8,0,9,2,,0.00,0,Fog,250
2012-12-6,62,56,50,59,46,43,94,68,63,30.24,30.20,30.15,10,10,10,10,5,16,0.00,0,,23
2012-12-7,60,55,50,59,51,43,100,85,71,30.15,30.07,30.01,10,9,2,7,3,,0.00,0,Rain,341
2012-12-8,69,60,50,59,55,50,100,92,64,30.09,30.05,30.01,10,6,0,6,2,,0.00,0,Fog,263
2012-12-9,78,64,50,68,61,50,100,91,61,30.15,30.08,29.99,10,8,1,7,1,,0.00,0,,167
2012-12-10,75,68,62,66,63,61,100,87,61,29.98,29.86,29.77,10,7,0,12,3,17,0.00,0,Fog,181
2012-12-11,68,64,59,66,62,59,100,94,78,30.08,29.94,29.78,10,9,2,9,3,,0.17,0,Rain,224
2012-12-12,57,50,44,55,49,45,100,96,77,30.25,30.17,30.08,10,9,5,10,5,21,0.24,0,Rain,8
2012-12-13,51,46,41,48,44,41,100,97,82,30.35,30.29,30.19,10,8,2,12,5,17,0.03,0,Rain,348
2012-12-14,60,48,35,45,40,36,100,85,48,30.38,30.30,30.23,10,10,5,8,1,,0.00,0,,340
2012-12-15,59,47,35,55,47,36,100,92,76,30.26,30.19,30.10,10,9,0,6,0,,0.00,0,Fog-Rain,359
2012-12-16,68,60,53,64,59,54,100,99,88,30.10,30.01,29.90,10,4,0,5,1,,0.01,0,Fog-Rain,114
2012-12-17,64,62,59,64,62,59,100,100,100,29.90,29.83,29.71,10,9,3,10,3,10,0.28,0,Rain,213
2012-12-18,68,56,44,61,52,39,100,80,43,29.99,29.83,29.75,10,10,5,15,5,26,0.00,0,,233
2012-12-19,69,52,35,52,43,36,100,78,40,30.12,30.05,29.98,10,10,10,10,2,,0.00,0,,237
2012-12-20,71,54,37,68,52,37,100,86,55,30.12,29.92,29.62,10,9,3,21,5,33,0.37,0,Rain,152
2012-12-21,59,50,42,52,33,28,82,58,47,29.95,29.82,29.69,10,10,10,25,14,38,0.00,0,,252
2012-12-22,55,44,32,34,28,25,93,59,35,30.17,30.10,29.95,10,10,10,13,8,18,0.00,0,,265
2012-12-23,59,44,28,37,33,28,100,74,36,30.22,30.13,30.09,10,10,10,7,1,,0.00,0,,198
2012-12-24,60,51,42,52,42,36,100,74,39,30.11,30.02,29.94,10,10,3,10,1,18,0.02,0,Rain,170
2012-12-25,59,52,46,55,53,46,100,98,88,30.10,30.02,29.96,10,9,2,6,1,,0.25,0,Rain,47
2012-12-26,69,56,42,68,52,36,100,82,55,29.96,29.69,29.49,10,9,2,20,9,29,0.51,0,Rain-Thunderstorm,186
2012-12-27,55,45,35,43,37,34,100,79,51,30.07,29.96,29.79,10,10,10,14,6,20,0.00,0,,260
2012-12-28,51,42,33,43,38,34,100,87,66,30.18,30.09,29.95,10,10,7,5,1,,0.00,0,,35
2012-12-29,59,50,42,52,44,36,100,86,63,30.04,29.84,29.72,10,9,1,15,5,25,0.98,0,Rain,275
2012-12-30,50,40,30,36,32,30,100,74,47,30.44,30.33,30.04,10,10,10,10,6,20,0.00,0,,295
2012-12-31,59,42,26,46,37,27,100,79,44,30.45,30.32,30.18,10,10,10,9,1,,0.00,0,,202